X  ZamknijMetar - Lotnicze dane pogodowe     EPKT Katowice International Airport

Temperatura

23°C Temperatura

9°C Punkt rosy

41% Wilgotność



Wiatr

 5 km/h

 3 MPH

 1 m/s

 3 KTS



Cisza
Nord
Obecne warunki

Bezchmurnie Bezchmurnie
Ciśnienie 1019.92 (hPa) - 30.12 (in)
Widoczność 6.2 (mi) - 10 (km)
Lotnisko
Kod lotniska EPKT

Lokalizacja Katowice International Airport 23 (km)

Metar:
EPKT 211230Z VRB03KT CAVOK 23/09 Q1020

Czas: 21-09-2020 14:30